Time;durP1;ratioP1;P1;durP2;ratioP2;P2;SDS_P1;SDS_P2;PMS_P1;PMS_P2;Temp;Humidity;BMP_temperature;BMP_pressure;BME280_temperature;BME280_humidity;BME280_pressure;Samples;Min_cycle;Max_cycle;Signal;HPM_P1;HPM_P2
2023/09/28 00:01:18;;;;;;;21.52;20.33;;;;;;;;;;5044289;28;20040;-68
2023/09/28 00:03:48;;;;;;;21.67;20.48;;;;;;;;;;5046286;28;20358;-67
2023/09/28 00:06:14;;;;;;;20.58;19.48;;;;;;;;;;5047617;28;20047;-68
2023/09/28 00:08:39;;;;;;;20.70;19.50;;;;;;;;;;5043457;28;20041;-67
2023/09/28 00:11:05;;;;;;;22.42;21.20;;;;;;;;;;5046435;28;20025;-68
2023/09/28 00:13:31;;;;;;;23.13;21.80;;;;;;;;;;5044808;28;20425;-67
2023/09/28 00:15:56;;;;;;;22.15;20.25;;;;;;;;;;5044345;28;20101;-67
2023/09/28 00:18:23;;;;;;;21.08;19.95;;;;;;;;;;5042914;28;20079;-67
2023/09/28 00:20:49;;;;;;;20.88;19.73;;;;;;;;;;5046385;28;20029;-67
2023/09/28 00:23:16;;;;;;;22.45;21.25;;;;;;;;;;5043864;28;20040;-67
2023/09/28 00:25:41;;;;;;;22.02;20.73;;;;;;;;;;5044273;28;20029;-68
2023/09/28 00:28:07;;;;;;;23.38;22.08;;;;;;;;;;5043419;28;20033;-67
2023/09/28 00:30:32;;;;;;;24.85;23.45;;;;;;;;;;5047303;28;20520;-67
2023/09/28 00:32:57;;;;;;;23.15;21.85;;;;;;;;;;5044154;28;20047;-67
2023/09/28 00:35:24;;;;;;;21.98;20.75;;;;;;;;;;5043535;28;20811;-67
2023/09/28 00:37:50;;;;;;;22.48;21.27;;;;;;;;;;5045154;28;20037;-68
2023/09/28 00:42:45;;;;;;;21.27;20.10;;;;;;;;;;5045501;28;20032;-68
2023/09/28 00:45:11;;;;;;;21.33;20.15;;;;;;;;;;5042690;28;20029;-68
2023/09/28 00:47:40;;;;;;;22.88;21.67;;;;;;;;;;5048899;28;20044;-67
2023/09/28 00:50:14;;;;;;;24.75;23.35;;;;;;;;;;5044885;28;20029;-68
2023/09/28 00:52:46;;;;;;;20.67;19.55;;;;;;;;;;5045221;28;20756;-68
2023/09/28 00:55:15;;;;;;;23.08;21.77;;;;;;;;;;5044546;28;20029;-68
2023/09/28 00:57:42;;;;;;;22.73;21.50;;;;;;;;;;5040579;28;20036;-67
2023/09/28 01:00:26;;;;;;;21.77;20.58;;;;;;;;;;5040944;28;20463;-67
2023/09/28 01:02:52;;;;;;;23.45;22.17;;;;;;;;;;5046444;28;20106;-68
2023/09/28 01:05:22;;;;;;;23.13;21.83;;;;;;;;;;5042498;28;20052;-69
2023/09/28 01:07:48;;;;;;;21.52;20.33;;;;;;;;;;5043045;28;20026;-68
2023/09/28 01:10:14;;;;;;;20.73;19.52;;;;;;;;;;5043606;28;20090;-68
2023/09/28 01:12:41;;;;;;;23.00;21.77;;;;;;;;;;5041819;28;20037;-68
2023/09/28 01:15:11;;;;;;;21.98;20.77;;;;;;;;;;5038683;28;20048;-69
2023/09/28 01:17:38;;;;;;;23.67;22.38;;;;;;;;;;5042319;28;20115;-68
2023/09/28 01:20:17;;;;;;;22.20;20.98;;;;;;;;;;5045035;28;20124;-68
2023/09/28 01:22:43;;;;;;;23.92;22.63;;;;;;;;;;5038417;28;20108;-67
2023/09/28 01:25:09;;;;;;;22.65;21.45;;;;;;;;;;5023859;28;20200;-68
2023/09/28 01:27:35;;;;;;;21.85;20.60;;;;;;;;;;5026810;28;20526;-67
2023/09/28 01:30:03;;;;;;;24.48;23.10;;;;;;;;;;5046759;28;20469;-68
2023/09/28 01:32:29;;;;;;;22.77;21.48;;;;;;;;;;5042444;28;20041;-68
2023/09/28 01:34:54;;;;;;;21.58;20.38;;;;;;;;;;5043966;28;20120;-68
2023/09/28 01:37:23;;;;;;;22.95;21.38;;;;;;;;;;5042273;28;20035;-67
2023/09/28 01:39:49;;;;;;;21.70;20.50;;;;;;;;;;5041881;28;20044;-68
2023/09/28 01:42:14;;;;;;;21.90;20.70;;;;;;;;;;5040238;28;20025;-67
2023/09/28 01:44:39;;;;;;;21.90;20.60;;;;;;;;;;5043597;28;20597;-67
2023/09/28 01:47:06;;;;;;;21.10;19.98;;;;;;;;;;5039458;28;20093;-68
2023/09/28 01:49:31;;;;;;;21.98;20.67;;;;;;;;;;5040613;28;20155;-64
2023/09/28 01:51:56;;;;;;;22.58;21.38;;;;;;;;;;5039107;28;20037;-68
2023/09/28 01:54:22;;;;;;;23.70;21.73;;;;;;;;;;5040123;28;20053;-68
2023/09/28 01:56:47;;;;;;;21.02;19.92;;;;;;;;;;5041741;28;20022;-67
2023/09/28 01:59:14;;;;;;;22.38;21.17;;;;;;;;;;5043478;28;20514;-67
2023/09/28 02:01:40;;;;;;;20.50;19.33;;;;;;;;;;5041374;28;20087;-67
2023/09/28 02:04:05;;;;;;;21.27;20.08;;;;;;;;;;5044413;28;20203;-68
2023/09/28 02:06:31;;;;;;;23.90;22.58;;;;;;;;;;5041706;28;20182;-67
2023/09/28 02:08:56;;;;;;;24.65;23.33;;;;;;;;;;5041422;28;20041;-67
2023/09/28 02:11:21;;;;;;;24.17;22.88;;;;;;;;;;5043183;28;20033;-67
2023/09/28 02:13:47;;;;;;;24.55;23.25;;;;;;;;;;5041653;28;20044;-67
2023/09/28 02:16:13;;;;;;;24.77;23.40;;;;;;;;;;5040526;28;20033;-67
2023/09/28 02:18:41;;;;;;;26.15;24.73;;;;;;;;;;5040404;28;20048;-68
2023/09/28 02:21:12;;;;;;;24.20;22.90;;;;;;;;;;5042621;28;20024;-68
2023/09/28 02:23:37;;;;;;;23.92;22.63;;;;;;;;;;5041527;28;20045;-68
2023/09/28 02:26:05;;;;;;;25.15;23.75;;;;;;;;;;5039697;28;20138;-66
2023/09/28 02:28:31;;;;;;;25.90;24.50;;;;;;;;;;5041676;28;20029;-65
2023/09/28 02:31:04;;;;;;;26.15;24.70;;;;;;;;;;5043652;28;20025;-66
2023/09/28 02:33:29;;;;;;;25.25;23.92;;;;;;;;;;5040022;28;20047;-65
2023/09/28 02:35:55;;;;;;;24.88;23.55;;;;;;;;;;5040873;28;20823;-65
2023/09/28 02:38:20;;;;;;;22.73;21.48;;;;;;;;;;5040585;28;20463;-65
2023/09/28 02:40:46;;;;;;;21.77;20.55;;;;;;;;;;5040996;28;20457;-65
2023/09/28 02:43:11;;;;;;;22.85;21.55;;;;;;;;;;5040648;28;20470;-65
2023/09/28 02:45:36;;;;;;;24.63;23.20;;;;;;;;;;5041959;28;20692;-65
2023/09/28 02:48:02;;;;;;;25.58;24.17;;;;;;;;;;5045565;28;20033;-65
2023/09/28 02:50:27;;;;;;;23.85;22.55;;;;;;;;;;5039944;28;20032;-65
2023/09/28 02:52:52;;;;;;;24.55;23.25;;;;;;;;;;5038398;28;20051;-64
2023/09/28 02:55:18;;;;;;;28.27;26.67;;;;;;;;;;5045172;28;20470;-64
2023/09/28 02:57:43;;;;;;;30.30;28.63;;;;;;;;;;5039771;28;20036;-64
2023/09/28 03:00:27;;;;;;;30.52;28.85;;;;;;;;;;5044947;28;20056;-64
2023/09/28 03:02:55;;;;;;;30.70;29.00;;;;;;;;;;5036692;28;20036;-63
2023/09/28 03:05:20;;;;;;;28.05;26.45;;;;;;;;;;5039565;28;20094;-65
2023/09/28 03:07:46;;;;;;;27.15;25.65;;;;;;;;;;5039699;28;20029;-65
2023/09/28 03:10:12;;;;;;;31.55;29.75;;;;;;;;;;5042805;28;20048;-66
2023/09/28 03:12:38;;;;;;;27.13;25.63;;;;;;;;;;5042069;28;20024;-67
2023/09/28 03:15:10;;;;;;;26.73;25.05;;;;;;;;;;5041124;28;20131;-66
2023/09/28 03:17:36;;;;;;;26.85;25.40;;;;;;;;;;5042212;28;20040;-66
2023/09/28 03:20:09;;;;;;;27.73;26.23;;;;;;;;;;5040960;28;20033;-66
2023/09/28 03:22:35;;;;;;;27.17;25.67;;;;;;;;;;5041680;28;20036;-66
2023/09/28 03:25:01;;;;;;;26.42;24.92;;;;;;;;;;5040896;28;20100;-67
2023/09/28 03:27:26;;;;;;;26.05;24.48;;;;;;;;;;5045014;28;20029;-66
2023/09/28 03:29:53;;;;;;;25.08;23.73;;;;;;;;;;5039617;28;20057;-66
2023/09/28 03:32:18;;;;;;;25.70;24.20;;;;;;;;;;5045447;28;20044;-66
2023/09/28 03:34:44;;;;;;;26.83;25.23;;;;;;;;;;5041620;28;20041;-66
2023/09/28 03:37:10;;;;;;;25.52;24.02;;;;;;;;;;5041101;28;20091;-66
2023/09/28 03:39:35;;;;;;;25.67;24.27;;;;;;;;;;5040621;28;20478;-65
2023/09/28 03:42:00;;;;;;;25.77;24.20;;;;;;;;;;5040236;28;20025;-65
2023/09/28 03:44:26;;;;;;;24.80;23.42;;;;;;;;;;5037075;28;20451;-65
2023/09/28 03:46:52;;;;;;;26.55;25.13;;;;;;;;;;5038517;28;20025;-62
2023/09/28 03:49:17;;;;;;;26.55;25.15;;;;;;;;;;5040274;28;20052;-63
2023/09/28 03:51:43;;;;;;;25.77;24.38;;;;;;;;;;5043309;28;20106;-63
2023/09/28 03:54:08;;;;;;;27.23;25.73;;;;;;;;;;5044120;28;20336;-64
2023/09/28 03:56:33;;;;;;;23.75;22.45;;;;;;;;;;5040628;28;20351;-65
2023/09/28 03:58:59;;;;;;;26.25;24.85;;;;;;;;;;5041228;28;20036;-65
2023/09/28 04:01:26;;;;;;;28.15;26.63;;;;;;;;;;5039119;28;20169;-65
2023/09/28 04:03:53;;;;;;;26.30;24.90;;;;;;;;;;5041984;28;20032;-65
2023/09/28 04:06:18;;;;;;;26.10;24.70;;;;;;;;;;5044237;28;20128;-65
2023/09/28 04:08:43;;;;;;;25.67;24.10;;;;;;;;;;5041001;28;20132;-65
2023/09/28 04:11:09;;;;;;;26.50;25.00;;;;;;;;;;5042834;28;20128;-65
2023/09/28 04:13:34;;;;;;;27.95;26.42;;;;;;;;;;5039934;28;20033;-65
2023/09/28 04:16:00;;;;;;;26.80;25.30;;;;;;;;;;5042775;28;20060;-66
2023/09/28 04:18:25;;;;;;;27.45;25.95;;;;;;;;;;5039651;28;20040;-65
2023/09/28 04:20:50;;;;;;;28.77;27.15;;;;;;;;;;5039140;28;20044;-66
2023/09/28 04:23:16;;;;;;;26.42;24.83;;;;;;;;;;5042564;28;20047;-66
2023/09/28 04:25:42;;;;;;;28.13;26.52;;;;;;;;;;5044487;28;20034;-66
2023/09/28 04:28:07;;;;;;;28.58;26.95;;;;;;;;;;5039137;28;20041;-64
2023/09/28 04:30:34;;;;;;;27.85;26.25;;;;;;;;;;5041672;28;20061;-65
2023/09/28 04:33:00;;;;;;;25.55;24.17;;;;;;;;;;5037369;28;20121;-66
2023/09/28 04:35:25;;;;;;;28.92;27.40;;;;;;;;;;5043696;28;20151;-66
2023/09/28 04:37:50;;;;;;;30.48;28.85;;;;;;;;;;5041383;28;20102;-66
2023/09/28 04:40:16;;;;;;;27.65;26.15;;;;;;;;;;5038491;28;20048;-66
2023/09/28 04:42:42;;;;;;;31.75;30.05;;;;;;;;;;5039391;28;20029;-66
2023/09/28 04:45:08;;;;;;;29.23;27.48;;;;;;;;;;5040109;28;20032;-65
2023/09/28 04:47:33;;;;;;;30.40;28.50;;;;;;;;;;5048195;28;20564;-66
2023/09/28 04:50:00;;;;;;;31.05;29.35;;;;;;;;;;5039682;28;20060;-63
2023/09/28 04:52:26;;;;;;;32.47;30.70;;;;;;;;;;5047244;28;20172;-66
2023/09/28 04:54:52;;;;;;;29.80;28.20;;;;;;;;;;5041022;28;20457;-67
2023/09/28 04:57:20;;;;;;;31.45;29.65;;;;;;;;;;5042303;28;20382;-66
2023/09/28 04:59:46;;;;;;;33.80;32.00;;;;;;;;;;5038630;28;20091;-66
2023/09/28 05:02:11;;;;;;;34.40;32.42;;;;;;;;;;5047147;28;20459;-67
2023/09/28 05:04:37;;;;;;;32.08;30.38;;;;;;;;;;5039664;28;20033;-64
2023/09/28 05:07:04;;;;;;;32.03;30.33;;;;;;;;;;5041315;28;20248;-67
2023/09/28 05:09:29;;;;;;;33.60;31.77;;;;;;;;;;5041028;28;20055;-65
2023/09/28 05:11:59;;;;;;;35.60;33.70;;;;;;;;;;5043613;28;20175;-64
2023/09/28 05:14:24;;;;;;;32.50;30.70;;;;;;;;;;5042851;28;20047;-65
2023/09/28 05:16:54;;;;;;;34.20;32.40;;;;;;;;;;5039866;28;20455;-65
2023/09/28 05:19:19;;;;;;;37.08;34.80;;;;;;;;;;5043351;28;20045;-65
2023/09/28 05:21:45;;;;;;;33.45;31.65;;;;;;;;;;5042875;28;20094;-64
2023/09/28 05:24:10;;;;;;;32.83;31.02;;;;;;;;;;5043937;28;20884;-65
2023/09/28 05:26:36;;;;;;;35.03;33.17;;;;;;;;;;5042869;28;20111;-65
2023/09/28 05:29:01;;;;;;;34.38;32.55;;;;;;;;;;5037575;28;20470;-65
2023/09/28 05:31:27;;;;;;;35.80;33.90;;;;;;;;;;5043241;28;20036;-65
2023/09/28 05:33:52;;;;;;;35.05;33.22;;;;;;;;;;5041985;28;20086;-65
2023/09/28 05:36:20;;;;;;;35.95;34.05;;;;;;;;;;5040539;28;20029;-65
2023/09/28 05:38:46;;;;;;;37.05;35.00;;;;;;;;;;5041590;28;20040;-65
2023/09/28 05:41:12;;;;;;;37.83;35.83;;;;;;;;;;5042348;28;20021;-65
2023/09/28 05:43:40;;;;;;;37.60;35.53;;;;;;;;;;5040857;28;20029;-65
2023/09/28 05:46:09;;;;;;;35.78;33.88;;;;;;;;;;5034108;28;20029;-65
2023/09/28 05:48:35;;;;;;;34.22;32.33;;;;;;;;;;5039104;28;20046;-65
2023/09/28 05:51:01;;;;;;;34.33;32.53;;;;;;;;;;5037629;28;20375;-64
2023/09/28 05:53:26;;;;;;;37.40;35.20;;;;;;;;;;5041392;28;20029;-65
2023/09/28 05:55:51;;;;;;;35.25;33.35;;;;;;;;;;5038432;28;20566;-65
2023/09/28 05:58:17;;;;;;;34.42;32.25;;;;;;;;;;5040806;28;20422;-64
2023/09/28 06:00:42;;;;;;;32.42;30.52;;;;;;;;;;5038731;28;20029;-65
2023/09/28 06:03:08;;;;;;;31.85;30.15;;;;;;;;;;5041448;28;20044;-65
2023/09/28 06:05:33;;;;;;;34.60;32.67;;;;;;;;;;5043204;28;20028;-64
2023/09/28 06:07:59;;;;;;;31.50;29.60;;;;;;;;;;5038976;28;20151;-64
2023/09/28 06:10:26;;;;;;;31.67;29.88;;;;;;;;;;5043180;28;20045;-64
2023/09/28 06:12:52;;;;;;;32.63;30.92;;;;;;;;;;5041406;28;20021;-64
2023/09/28 06:15:17;;;;;;;31.92;30.17;;;;;;;;;;5041447;28;20035;-65
2023/09/28 06:17:43;;;;;;;32.33;30.63;;;;;;;;;;5044584;28;20041;-65
2023/09/28 06:20:08;;;;;;;32.53;30.63;;;;;;;;;;5044438;28;20029;-65
2023/09/28 06:22:34;;;;;;;31.45;29.77;;;;;;;;;;5045844;28;20036;-65
2023/09/28 06:24:59;;;;;;;33.25;30.90;;;;;;;;;;5042935;28;20048;-64
2023/09/28 06:27:26;;;;;;;32.78;30.98;;;;;;;;;;5038229;28;20037;-65
2023/09/28 06:29:53;;;;;;;31.05;29.35;;;;;;;;;;5038755;28;20032;-65
2023/09/28 06:32:19;;;;;;;30.98;29.17;;;;;;;;;;5038329;28;20421;-65
2023/09/28 06:34:45;;;;;;;31.55;29.75;;;;;;;;;;5037778;28;20029;-66
2023/09/28 06:37:10;;;;;;;30.70;29.02;;;;;;;;;;5037062;28;20031;-66
2023/09/28 06:39:35;;;;;;;29.08;27.48;;;;;;;;;;5036275;28;20405;-66
2023/09/28 06:42:01;;;;;;;29.70;28.10;;;;;;;;;;5037302;28;20035;-66
2023/09/28 06:44:26;;;;;;;29.98;28.35;;;;;;;;;;5039351;28;20029;-66
2023/09/28 06:46:52;;;;;;;28.23;26.67;;;;;;;;;;5038933;28;20146;-65
2023/09/28 06:49:17;;;;;;;27.75;26.13;;;;;;;;;;5040053;28;20774;-65
2023/09/28 06:51:43;;;;;;;28.83;27.10;;;;;;;;;;5032534;28;20111;-65
2023/09/28 06:54:08;;;;;;;28.42;26.85;;;;;;;;;;5041041;28;20029;-65
2023/09/28 06:56:36;;;;;;;31.60;29.65;;;;;;;;;;5036140;28;20086;-65
2023/09/28 06:59:01;;;;;;;29.95;28.13;;;;;;;;;;5038091;28;20038;-65
2023/09/28 07:01:27;;;;;;;32.22;30.50;;;;;;;;;;5039231;28;20121;-64
2023/09/28 07:03:52;;;;;;;31.27;29.60;;;;;;;;;;5039023;28;21451;-64
2023/09/28 07:06:21;;;;;;;32.55;30.70;;;;;;;;;;5035348;28;20044;-65
2023/09/28 07:08:47;;;;;;;33.25;31.23;;;;;;;;;;5038458;28;20551;-64
2023/09/28 07:11:12;;;;;;;31.63;29.75;;;;;;;;;;5039648;28;20125;-65
2023/09/28 07:13:38;;;;;;;30.58;28.75;;;;;;;;;;5041201;28;20060;-65
2023/09/28 07:16:03;;;;;;;33.45;31.70;;;;;;;;;;5039851;28;20072;-65
2023/09/28 07:18:28;;;;;;;33.50;31.73;;;;;;;;;;5039211;28;20041;-65
2023/09/28 07:20:55;;;;;;;36.08;34.15;;;;;;;;;;5038050;28;20040;-65
2023/09/28 07:23:20;;;;;;;35.42;33.40;;;;;;;;;;5042435;28;20028;-66
2023/09/28 07:25:47;;;;;;;34.35;32.45;;;;;;;;;;5042170;28;20052;-65
2023/09/28 07:28:12;;;;;;;33.85;31.90;;;;;;;;;;5044110;28;20032;-65
2023/09/28 07:30:38;;;;;;;33.38;31.45;;;;;;;;;;5044679;28;20097;-65
2023/09/28 07:33:04;;;;;;;39.30;37.10;;;;;;;;;;5043422;28;20364;-65
2023/09/28 07:35:30;;;;;;;38.38;36.25;;;;;;;;;;5042965;28;20041;-65
2023/09/28 07:37:55;;;;;;;40.72;38.50;;;;;;;;;;5037869;28;20029;-66
2023/09/28 07:40:24;;;;;;;37.35;35.20;;;;;;;;;;5042644;28;20028;-65
2023/09/28 07:42:50;;;;;;;33.00;31.25;;;;;;;;;;5039231;28;20048;-65
2023/09/28 07:45:18;;;;;;;30.98;29.33;;;;;;;;;;5039417;28;20094;-65
2023/09/28 07:47:43;;;;;;;36.80;34.85;;;;;;;;;;5046020;28;20035;-66
2023/09/28 07:50:14;;;;;;;28.17;26.58;;;;;;;;;;5042600;28;20505;-65
2023/09/28 07:52:40;;;;;;;23.58;22.25;;;;;;;;;;5042222;28;20029;-65
2023/09/28 07:55:07;;;;;;;25.17;23.65;;;;;;;;;;5040565;28;20037;-66
2023/09/28 07:57:32;;;;;;;22.08;20.88;;;;;;;;;;5043205;28;20028;-65
2023/09/28 07:59:59;;;;;;;22.30;21.02;;;;;;;;;;5040960;28;20102;-66
2023/09/28 08:02:25;;;;;;;24.85;23.35;;;;;;;;;;5041078;28;20116;-66
2023/09/28 08:04:51;;;;;;;24.30;22.80;;;;;;;;;;5043365;28;20132;-66
2023/09/28 08:07:17;;;;;;;24.08;22.70;;;;;;;;;;5042575;28;20043;-65
2023/09/28 08:09:43;;;;;;;26.35;24.85;;;;;;;;;;5043773;28;20033;-66
2023/09/28 08:12:08;;;;;;;26.42;24.95;;;;;;;;;;5043303;28;20245;-65
2023/09/28 08:14:34;;;;;;;30.75;28.98;;;;;;;;;;5040587;28;20071;-65
2023/09/28 08:16:59;;;;;;;28.92;27.30;;;;;;;;;;5042108;28;20044;-64
2023/09/28 08:19:25;;;;;;;32.55;30.45;;;;;;;;;;5045233;28;20026;-64
2023/09/28 08:21:50;;;;;;;38.10;36.03;;;;;;;;;;5047368;28;20462;-64
2023/09/28 08:24:16;;;;;;;35.33;33.45;;;;;;;;;;5043209;28;20038;-64
2023/09/28 08:26:42;;;;;;;38.55;36.38;;;;;;;;;;5053346;28;20037;-65
2023/09/28 08:29:08;;;;;;;47.33;44.83;;;;;;;;;;5038786;28;20346;-65
2023/09/28 08:31:33;;;;;;;43.15;40.72;;;;;;;;;;5042397;28;20455;-66
2023/09/28 08:33:59;;;;;;;41.30;38.97;;;;;;;;;;5040611;28;20370;-65
2023/09/28 08:36:26;;;;;;;44.90;42.50;;;;;;;;;;5041720;28;20473;-65
2023/09/28 08:38:53;;;;;;;43.08;40.80;;;;;;;;;;5039841;28;20056;-64
2023/09/28 08:41:46;;;;;;;43.58;40.97;;;;;;;;;;5040975;28;20517;-65
2023/09/28 08:44:12;;;;;;;50.90;48.22;;;;;;;;;;5037988;28;20509;-65
2023/09/28 08:46:38;;;;;;;47.70;45.08;;;;;;;;;;5039719;28;20026;-65
2023/09/28 08:49:08;;;;;;;56.92;54.00;;;;;;;;;;5040546;28;20029;-65
2023/09/28 08:51:36;;;;;;;35.83;33.83;;;;;;;;;;5039750;28;20344;-65
2023/09/28 08:54:04;;;;;;;43.67;41.25;;;;;;;;;;5036513;28;20040;-66
2023/09/28 08:56:32;;;;;;;55.42;52.55;;;;;;;;;;5039724;28;20044;-65
2023/09/28 08:58:59;;;;;;;68.72;65.25;;;;;;;;;;5043393;28;20043;-66
2023/09/28 09:01:27;;;;;;;36.65;34.72;;;;;;;;;;5040069;28;20663;-65
2023/09/28 09:03:53;;;;;;;22.58;21.17;;;;;;;;;;5037812;28;20029;-65
2023/09/28 09:06:20;;;;;;;24.58;23.17;;;;;;;;;;5036781;28;20064;-66
2023/09/28 09:08:48;;;;;;;19.52;18.42;;;;;;;;;;5038649;28;20640;-65
2023/09/28 09:11:16;;;;;;;21.42;20.13;;;;;;;;;;5040248;28;20029;-66
2023/09/28 09:13:55;;;;;;;20.70;19.52;;;;;;;;;;5038318;28;20458;-66
2023/09/28 09:16:26;;;;;;;21.00;19.75;;;;;;;;;;5037258;28;20034;-66
2023/09/28 09:18:53;;;;;;;18.73;17.63;;;;;;;;;;5037358;28;20056;-65
2023/09/28 09:21:19;;;;;;;19.45;18.35;;;;;;;;;;5037039;28;20033;-65
2023/09/28 09:24:03;;;;;;;21.05;19.30;;;;;;;;;;5034736;28;20036;-66
2023/09/28 09:26:36;;;;;;;19.63;18.33;;;;;;;;;;5037309;28;20312;-66
2023/09/28 09:29:03;;;;;;;20.55;19.35;;;;;;;;;;5036719;28;20049;-66
2023/09/28 09:31:30;;;;;;;20.15;18.88;;;;;;;;;;5038611;28;20033;-66
2023/09/28 09:33:56;;;;;;;19.42;18.33;;;;;;;;;;5035544;28;20060;-66
2023/09/28 09:36:21;;;;;;;19.45;18.33;;;;;;;;;;5035127;28;20065;-65
2023/09/28 09:38:50;;;;;;;21.92;20.67;;;;;;;;;;5032145;28;20096;-66
2023/09/28 09:41:16;;;;;;;21.63;20.48;;;;;;;;;;5033368;28;20082;-66
2023/09/28 09:43:41;;;;;;;18.52;17.48;;;;;;;;;;5033539;28;20386;-65
2023/09/28 09:46:09;;;;;;;20.58;19.38;;;;;;;;;;5034349;28;20059;-65
2023/09/28 09:48:42;;;;;;;19.15;18.05;;;;;;;;;;5032046;28;21282;-64
2023/09/28 09:51:12;;;;;;;21.65;20.45;;;;;;;;;;5033876;28;20120;-65
2023/09/28 09:53:42;;;;;;;18.60;17.40;;;;;;;;;;5036365;28;20032;-65
2023/09/28 09:56:10;;;;;;;18.15;17.13;;;;;;;;;;5034376;28;20037;-65
2023/09/28 09:58:43;;;;;;;23.08;21.77;;;;;;;;;;5035340;28;20532;-66
2023/09/28 10:01:12;;;;;;;20.80;19.50;;;;;;;;;;5033257;28;20045;-66
2023/09/28 10:04:00;;;;;;;28.58;27.05;;;;;;;;;;5037796;28;20678;-65
2023/09/28 10:06:27;;;;;;;23.02;21.73;;;;;;;;;;5039418;28;20095;-66
2023/09/28 10:08:53;;;;;;;23.27;21.98;;;;;;;;;;5039705;28;20070;-65
2023/09/28 10:11:19;;;;;;;21.10;19.90;;;;;;;;;;5040525;28;20242;-65
2023/09/28 10:13:48;;;;;;;23.15;21.83;;;;;;;;;;5033530;28;20041;-65
2023/09/28 10:16:15;;;;;;;32.78;31.08;;;;;;;;;;5040001;28;20040;-65
2023/09/28 10:18:43;;;;;;;27.25;25.73;;;;;;;;;;5036024;28;20142;-66
2023/09/28 10:21:10;;;;;;;27.45;25.75;;;;;;;;;;5045387;28;20033;-65
2023/09/28 10:23:35;;;;;;;28.65;27.08;;;;;;;;;;5038669;28;20059;-65
2023/09/28 10:26:12;;;;;;;29.40;27.75;;;;;;;;;;5037214;28;20040;-65
2023/09/28 10:28:59;;;;;;;35.13;33.22;;;;;;;;;;5037731;28;20048;-64
2023/09/28 10:31:28;;;;;;;32.50;30.65;;;;;;;;;;5033338;28;20043;-64
2023/09/28 10:34:01;;;;;;;49.15;46.63;;;;;;;;;;5035258;28;20033;-64
2023/09/28 10:36:26;;;;;;;52.28;49.58;;;;;;;;;;5035332;28;20418;-64
2023/09/28 10:39:15;;;;;;;58.63;55.63;;;;;;;;;;5032480;28;20044;-64
2023/09/28 10:41:51;;;;;;;55.95;53.15;;;;;;;;;;5039040;28;20344;-62
2023/09/28 10:44:21;;;;;;;82.43;78.22;;;;;;;;;;5033187;28;20354;-62
2023/09/28 10:46:48;;;;;;;86.88;82.60;;;;;;;;;;5036661;28;20033;-64
2023/09/28 10:49:15;;;;;;;94.47;89.80;;;;;;;;;;5034635;28;20096;-62
2023/09/28 10:51:42;;;;;;;98.32;93.50;;;;;;;;;;5035825;28;20045;-62
2023/09/28 10:54:08;;;;;;;95.55;90.85;;;;;;;;;;5021890;28;20032;-62
2023/09/28 10:56:34;;;;;;;94.40;89.68;;;;;;;;;;5035284;28;20029;-62
2023/09/28 10:59:01;;;;;;;88.35;83.95;;;;;;;;;;5035842;28;20045;-62
2023/09/28 11:01:27;;;;;;;84.53;80.32;;;;;;;;;;5042617;28;20043;-62
2023/09/28 11:03:54;;;;;;;90.18;85.72;;;;;;;;;;5038966;28;20029;-62
2023/09/28 11:06:20;;;;;;;86.65;82.32;;;;;;;;;;5037191;28;20052;-62
2023/09/28 11:08:45;;;;;;;88.70;84.30;;;;;;;;;;5038844;28;20280;-62
2023/09/28 11:11:11;;;;;;;87.50;83.13;;;;;;;;;;5041713;28;20030;-61
2023/09/28 11:13:37;;;;;;;71.68;67.95;;;;;;;;;;5037039;28;20111;-61
2023/09/28 11:16:03;;;;;;;61.15;58.05;;;;;;;;;;5040472;28;20056;-62
2023/09/28 11:18:29;;;;;;;55.45;52.65;;;;;;;;;;5039994;28;20039;-62
2023/09/28 11:20:56;;;;;;;46.30;43.92;;;;;;;;;;5042977;28;20024;-62
2023/09/28 11:23:22;;;;;;;47.90;45.38;;;;;;;;;;5040840;28;20037;-61
2023/09/28 11:25:47;;;;;;;36.85;34.95;;;;;;;;;;5039507;28;20040;-63
2023/09/28 11:28:13;;;;;;;42.10;39.90;;;;;;;;;;5041075;28;20033;-63
2023/09/28 11:30:39;;;;;;;41.92;39.72;;;;;;;;;;5038582;28;20746;-63
2023/09/28 11:33:05;;;;;;;31.67;30.02;;;;;;;;;;5041176;28;20033;-64
2023/09/28 11:35:32;;;;;;;30.40;28.60;;;;;;;;;;5040759;28;20033;-64
2023/09/28 11:37:59;;;;;;;37.33;35.30;;;;;;;;;;5037632;28;20052;-63
2023/09/28 11:40:25;;;;;;;34.58;32.60;;;;;;;;;;5038013;28;20601;-65
2023/09/28 11:42:52;;;;;;;38.30;36.30;;;;;;;;;;5038894;28;20037;-64
2023/09/28 11:45:18;;;;;;;34.28;32.45;;;;;;;;;;5038235;28;20597;-64
2023/09/28 11:47:46;;;;;;;33.45;31.60;;;;;;;;;;5038186;28;20071;-62
2023/09/28 11:50:12;;;;;;;28.15;26.65;;;;;;;;;;5036328;28;20463;-61
2023/09/28 11:52:37;;;;;;;22.42;21.20;;;;;;;;;;5039823;28;20091;-62
2023/09/28 11:55:05;;;;;;;23.90;22.58;;;;;;;;;;5038857;28;20065;-61
2023/09/28 11:57:35;;;;;;;21.48;20.27;;;;;;;;;;5039286;28;20041;-60
2023/09/28 12:00:01;;;;;;;24.75;22.73;;;;;;;;;;5040455;28;20049;-61
2023/09/28 12:02:28;;;;;;;22.73;21.42;;;;;;;;;;5039541;28;20041;-62
2023/09/28 12:04:54;;;;;;;25.13;23.63;;;;;;;;;;5037248;28;20244;-61
2023/09/28 12:07:19;;;;;;;22.65;21.45;;;;;;;;;;5035599;28;20052;-61
2023/09/28 12:09:45;;;;;;;24.40;23.10;;;;;;;;;;5039096;28;20469;-61
2023/09/28 12:12:10;;;;;;;21.42;20.23;;;;;;;;;;5035599;28;20056;-61
2023/09/28 12:14:35;;;;;;;22.88;21.13;;;;;;;;;;5038331;28;20482;-61
2023/09/28 12:17:01;;;;;;;23.67;22.23;;;;;;;;;;5036399;28;20106;-62
2023/09/28 12:19:26;;;;;;;27.35;25.05;;;;;;;;;;5036464;28;20036;-62
2023/09/28 12:21:51;;;;;;;24.00;22.70;;;;;;;;;;5038804;28;20047;-65
2023/09/28 12:24:17;;;;;;;22.17;20.95;;;;;;;;;;5037801;28;20040;-66
2023/09/28 12:26:42;;;;;;;22.83;21.63;;;;;;;;;;5035541;28;20033;-66
2023/09/28 12:29:08;;;;;;;23.42;22.20;;;;;;;;;;5032886;28;20028;-66
2023/09/28 12:31:35;;;;;;;26.35;24.85;;;;;;;;;;5035464;28;20111;-65
2023/09/28 12:34:00;;;;;;;23.23;21.98;;;;;;;;;;5037253;28;20033;-66
2023/09/28 12:36:27;;;;;;;23.90;22.60;;;;;;;;;;5036111;28;20491;-63
2023/09/28 12:38:53;;;;;;;25.92;24.52;;;;;;;;;;5036858;28;20513;-65
2023/09/28 12:41:18;;;;;;;23.73;22.42;;;;;;;;;;5034710;28;20032;-66
2023/09/28 12:43:45;;;;;;;23.35;22.05;;;;;;;;;;5036317;28;20068;-65
2023/09/28 12:46:11;;;;;;;24.80;23.40;;;;;;;;;;5036274;28;20052;-65
2023/09/28 12:48:36;;;;;;;23.15;21.85;;;;;;;;;;5037079;28;20033;-65
2023/09/28 12:51:01;;;;;;;24.92;23.52;;;;;;;;;;5036533;28;20028;-66
2023/09/28 12:53:27;;;;;;;29.40;27.80;;;;;;;;;;5039639;28;20051;-66
2023/09/28 12:55:53;;;;;;;28.27;26.77;;;;;;;;;;5037360;28;20064;-65
2023/09/28 12:58:19;;;;;;;24.15;22.85;;;;;;;;;;5038415;28;20091;-65
2023/09/28 13:00:45;;;;;;;27.15;25.67;;;;;;;;;;5035322;28;20148;-65
2023/09/28 13:03:10;;;;;;;23.98;22.67;;;;;;;;;;5039657;28;20064;-65
2023/09/28 13:05:43;;;;;;;28.67;27.17;;;;;;;;;;5037790;28;20041;-66
2023/09/28 13:08:12;;;;;;;24.95;23.58;;;;;;;;;;5035059;28;20088;-65
2023/09/28 13:10:38;;;;;;;32.00;30.17;;;;;;;;;;5039092;28;20599;-65
2023/09/28 13:13:05;;;;;;;30.23;28.63;;;;;;;;;;5038894;28;20037;-65
2023/09/28 13:15:32;;;;;;;30.55;28.95;;;;;;;;;;5038593;28;20068;-65
2023/09/28 13:17:59;;;;;;;28.38;26.77;;;;;;;;;;5038965;28;20133;-65
2023/09/28 13:20:26;;;;;;;28.30;26.80;;;;;;;;;;5035300;28;20186;-65
2023/09/28 13:22:54;;;;;;;24.42;23.02;;;;;;;;;;5043275;28;20052;-65
2023/09/28 13:25:21;;;;;;;26.45;25.05;;;;;;;;;;5038069;28;20037;-65
2023/09/28 13:27:46;;;;;;;27.08;25.63;;;;;;;;;;5042684;28;20447;-65
2023/09/28 13:30:12;;;;;;;31.88;30.17;;;;;;;;;;5034675;28;20087;-65
2023/09/28 13:32:38;;;;;;;37.33;35.40;;;;;;;;;;5035708;28;20029;-65
2023/09/28 13:35:10;;;;;;;32.17;30.48;;;;;;;;;;5037116;28;20044;-63
2023/09/28 13:37:36;;;;;;;31.25;29.55;;;;;;;;;;5036643;28;20052;-65
2023/09/28 13:40:03;;;;;;;33.75;31.95;;;;;;;;;;5036693;28;20114;-65
2023/09/28 13:42:29;;;;;;;41.85;39.75;;;;;;;;;;5036332;28;20033;-65
2023/09/28 13:44:59;;;;;;;36.67;34.78;;;;;;;;;;5020691;28;20037;-65
2023/09/28 13:47:26;;;;;;;;;;;;;;;;;;5035564;28;20037;-66
2023/09/28 13:49:52;;;;;;;39.50;37.47;;;;;;;;;;5037649;28;19916;-65
2023/09/28 13:52:17;;;;;;;37.35;35.42;;;;;;;;;;5037572;28;20033;-65
2023/09/28 13:54:43;;;;;;;38.88;36.88;;;;;;;;;;5035255;28;20037;-65
2023/09/28 13:57:09;;;;;;;39.30;37.20;;;;;;;;;;5033527;28;20036;-65
2023/09/28 13:59:34;;;;;;;31.23;29.60;;;;;;;;;;5034695;28;20118;-65
2023/09/28 14:02:00;;;;;;;40.35;38.22;;;;;;;;;;5034526;28;20447;-65
2023/09/28 14:04:26;;;;;;;46.53;44.15;;;;;;;;;;5034291;28;20435;-65
2023/09/28 14:06:54;;;;;;;38.53;36.55;;;;;;;;;;5031674;28;20390;-65
2023/09/28 14:09:24;;;;;;;38.05;35.97;;;;;;;;;;5033029;28;20463;-65
2023/09/28 14:11:50;;;;;;;31.92;30.23;;;;;;;;;;5036665;28;20112;-65
2023/09/28 14:14:16;;;;;;;37.63;35.72;;;;;;;;;;5032053;28;20171;-65
2023/09/28 14:16:41;;;;;;;41.42;39.30;;;;;;;;;;5035975;28;20029;-65
2023/09/28 14:19:07;;;;;;;34.67;31.70;;;;;;;;;;5036444;28;21057;-65